sensor_id;sensor_type;location;lat;lon;timestamp;P1;durP1;ratioP1;P2;durP2;ratioP2
19863;SDS011;10094;48.820;9.226;2023-06-04T00:02:56;7.78;;;6.20;;
19863;SDS011;10094;48.820;9.226;2023-06-04T00:09:38;9.55;;;6.47;;
19863;SDS011;10094;48.820;9.226;2023-06-04T00:16:21;9.95;;;6.70;;
19863;SDS011;10094;48.820;9.226;2023-06-04T00:23:03;9.48;;;7.43;;
19863;SDS011;10094;48.820;9.226;2023-06-04T00:29:47;8.35;;;7.15;;
19863;SDS011;10094;48.820;9.226;2023-06-04T00:36:29;10.10;;;7.38;;
19863;SDS011;10094;48.820;9.226;2023-06-04T00:43:11;10.50;;;7.05;;
19863;SDS011;10094;48.820;9.226;2023-06-04T00:49:58;9.48;;;7.38;;
19863;SDS011;10094;48.820;9.226;2023-06-04T00:56:41;11.18;;;7.63;;
19863;SDS011;10094;48.820;9.226;2023-06-04T01:03:24;7.97;;;6.78;;
19863;SDS011;10094;48.820;9.226;2023-06-04T01:10:11;7.93;;;6.65;;
19863;SDS011;10094;48.820;9.226;2023-06-04T01:17:01;8.18;;;6.63;;
19863;SDS011;10094;48.820;9.226;2023-06-04T01:23:51;9.20;;;7.60;;
19863;SDS011;10094;48.820;9.226;2023-06-04T01:30:41;8.18;;;6.50;;
19863;SDS011;10094;48.820;9.226;2023-06-04T01:37:27;8.27;;;6.90;;
19863;SDS011;10094;48.820;9.226;2023-06-04T01:44:09;7.97;;;6.97;;
19863;SDS011;10094;48.820;9.226;2023-06-04T01:50:52;9.98;;;6.80;;
19863;SDS011;10094;48.820;9.226;2023-06-04T01:57:35;7.97;;;6.68;;
19863;SDS011;10094;48.820;9.226;2023-06-04T02:04:18;9.75;;;6.95;;
19863;SDS011;10094;48.820;9.226;2023-06-04T02:11:00;10.95;;;7.63;;
19863;SDS011;10094;48.820;9.226;2023-06-04T02:17:43;8.85;;;6.72;;
19863;SDS011;10094;48.820;9.226;2023-06-04T02:24:27;11.20;;;5.97;;
19863;SDS011;10094;48.820;9.226;2023-06-04T02:31:09;11.80;;;6.90;;
19863;SDS011;10094;48.820;9.226;2023-06-04T02:37:52;7.38;;;6.30;;
19863;SDS011;10094;48.820;9.226;2023-06-04T02:44:34;9.50;;;7.28;;
19863;SDS011;10094;48.820;9.226;2023-06-04T02:51:17;8.93;;;6.10;;
19863;SDS011;10094;48.820;9.226;2023-06-04T02:57:59;9.60;;;6.18;;
19863;SDS011;10094;48.820;9.226;2023-06-04T03:04:43;10.02;;;6.47;;
19863;SDS011;10094;48.820;9.226;2023-06-04T03:11:27;8.38;;;5.25;;
19863;SDS011;10094;48.820;9.226;2023-06-04T03:18:10;8.25;;;5.65;;
19863;SDS011;10094;48.820;9.226;2023-06-04T03:24:53;7.38;;;4.78;;
19863;SDS011;10094;48.820;9.226;2023-06-04T03:31:36;4.93;;;3.95;;
19863;SDS011;10094;48.820;9.226;2023-06-04T03:38:19;5.50;;;3.40;;
19863;SDS011;10094;48.820;9.226;2023-06-04T03:45:02;5.88;;;4.60;;
19863;SDS011;10094;48.820;9.226;2023-06-04T03:51:46;5.45;;;4.15;;
19863;SDS011;10094;48.820;9.226;2023-06-04T03:58:29;7.30;;;5.05;;
19863;SDS011;10094;48.820;9.226;2023-06-04T04:05:12;5.97;;;4.43;;
19863;SDS011;10094;48.820;9.226;2023-06-04T04:11:59;5.05;;;4.18;;
19863;SDS011;10094;48.820;9.226;2023-06-04T04:18:43;5.20;;;3.60;;
19863;SDS011;10094;48.820;9.226;2023-06-04T04:25:26;5.28;;;3.20;;
19863;SDS011;10094;48.820;9.226;2023-06-04T04:32:09;4.45;;;3.00;;
19863;SDS011;10094;48.820;9.226;2023-06-04T04:38:55;5.28;;;2.80;;
19863;SDS011;10094;48.820;9.226;2023-06-04T04:45:46;3.67;;;2.63;;
19863;SDS011;10094;48.820;9.226;2023-06-04T04:52:29;4.75;;;3.40;;
19863;SDS011;10094;48.820;9.226;2023-06-04T04:59:11;4.45;;;3.35;;
19863;SDS011;10094;48.820;9.226;2023-06-04T05:05:55;3.22;;;2.80;;
19863;SDS011;10094;48.820;9.226;2023-06-04T05:12:38;4.97;;;2.97;;
19863;SDS011;10094;48.820;9.226;2023-06-04T05:19:22;3.50;;;3.00;;
19863;SDS011;10094;48.820;9.226;2023-06-04T05:26:06;3.47;;;2.60;;
19863;SDS011;10094;48.820;9.226;2023-06-04T05:32:49;4.38;;;3.10;;
19863;SDS011;10094;48.820;9.226;2023-06-04T05:39:34;6.20;;;3.72;;
19863;SDS011;10094;48.820;9.226;2023-06-04T05:46:23;4.82;;;3.20;;
19863;SDS011;10094;48.820;9.226;2023-06-04T05:53:07;5.15;;;2.67;;
19863;SDS011;10094;48.820;9.226;2023-06-04T05:59:49;4.00;;;3.42;;
19863;SDS011;10094;48.820;9.226;2023-06-04T06:06:33;5.95;;;3.63;;
19863;SDS011;10094;48.820;9.226;2023-06-04T06:13:17;2.97;;;2.65;;
19863;SDS011;10094;48.820;9.226;2023-06-04T06:19:59;3.80;;;2.60;;
19863;SDS011;10094;48.820;9.226;2023-06-04T06:26:42;3.63;;;2.30;;
19863;SDS011;10094;48.820;9.226;2023-06-04T06:33:27;2.70;;;2.45;;
19863;SDS011;10094;48.820;9.226;2023-06-04T06:40:10;2.72;;;2.47;;
19863;SDS011;10094;48.820;9.226;2023-06-04T06:46:52;3.40;;;2.28;;
19863;SDS011;10094;48.820;9.226;2023-06-04T06:53:35;4.43;;;2.75;;
19863;SDS011;10094;48.820;9.226;2023-06-04T07:00:17;4.95;;;2.70;;
19863;SDS011;10094;48.820;9.226;2023-06-04T07:07:00;3.15;;;2.85;;
19863;SDS011;10094;48.820;9.226;2023-06-04T07:13:42;5.63;;;2.63;;
19863;SDS011;10094;48.820;9.226;2023-06-04T07:20:25;3.10;;;2.72;;
19863;SDS011;10094;48.820;9.226;2023-06-04T07:27:14;3.40;;;2.47;;
19863;SDS011;10094;48.820;9.226;2023-06-04T07:33:56;3.53;;;2.70;;
19863;SDS011;10094;48.820;9.226;2023-06-04T07:40:39;4.38;;;2.67;;
19863;SDS011;10094;48.820;9.226;2023-06-04T07:47:21;4.38;;;2.40;;
19863;SDS011;10094;48.820;9.226;2023-06-04T07:54:04;6.97;;;2.80;;
19863;SDS011;10094;48.820;9.226;2023-06-04T08:00:46;6.05;;;2.80;;
19863;SDS011;10094;48.820;9.226;2023-06-04T08:07:29;4.53;;;3.10;;
19863;SDS011;10094;48.820;9.226;2023-06-04T08:14:11;3.55;;;2.67;;
19863;SDS011;10094;48.820;9.226;2023-06-04T08:20:54;5.32;;;2.78;;
19863;SDS011;10094;48.820;9.226;2023-06-04T08:27:53;7.10;;;2.65;;
19863;SDS011;10094;48.820;9.226;2023-06-04T08:34:55;4.97;;;2.47;;
19863;SDS011;10094;48.820;9.226;2023-06-04T08:41:45;3.40;;;2.72;;
19863;SDS011;10094;48.820;9.226;2023-06-04T08:48:30;2.78;;;2.50;;
19863;SDS011;10094;48.820;9.226;2023-06-04T08:55:14;3.03;;;2.72;;
19863;SDS011;10094;48.820;9.226;2023-06-04T09:01:58;3.33;;;2.80;;
19863;SDS011;10094;48.820;9.226;2023-06-04T09:08:41;5.20;;;2.78;;
19863;SDS011;10094;48.820;9.226;2023-06-04T09:15:37;3.05;;;2.75;;
19863;SDS011;10094;48.820;9.226;2023-06-04T09:22:19;2.78;;;2.45;;
19863;SDS011;10094;48.820;9.226;2023-06-04T09:29:13;4.85;;;2.40;;
19863;SDS011;10094;48.820;9.226;2023-06-04T09:35:57;2.50;;;2.17;;
19863;SDS011;10094;48.820;9.226;2023-06-04T09:42:58;3.67;;;2.70;;
19863;SDS011;10094;48.820;9.226;2023-06-04T09:49:41;3.38;;;2.58;;
19863;SDS011;10094;48.820;9.226;2023-06-04T09:56:24;4.35;;;3.05;;
19863;SDS011;10094;48.820;9.226;2023-06-04T10:03:08;5.05;;;3.25;;
19863;SDS011;10094;48.820;9.226;2023-06-04T10:09:55;3.95;;;2.88;;
19863;SDS011;10094;48.820;9.226;2023-06-04T10:16:38;3.83;;;3.40;;
19863;SDS011;10094;48.820;9.226;2023-06-04T10:23:22;5.47;;;3.50;;
19863;SDS011;10094;48.820;9.226;2023-06-04T10:30:06;3.72;;;3.35;;
19863;SDS011;10094;48.820;9.226;2023-06-04T10:36:49;7.13;;;3.58;;
19863;SDS011;10094;48.820;9.226;2023-06-04T10:43:32;6.15;;;3.00;;
19863;SDS011;10094;48.820;9.226;2023-06-04T10:50:15;5.00;;;3.33;;
19863;SDS011;10094;48.820;9.226;2023-06-04T10:56:57;4.00;;;3.30;;
19863;SDS011;10094;48.820;9.226;2023-06-04T11:03:40;3.45;;;2.95;;
19863;SDS011;10094;48.820;9.226;2023-06-04T11:10:30;5.72;;;3.28;;
19863;SDS011;10094;48.820;9.226;2023-06-04T11:17:15;6.15;;;3.50;;
19863;SDS011;10094;48.820;9.226;2023-06-04T11:23:58;3.55;;;2.75;;
19863;SDS011;10094;48.820;9.226;2023-06-04T11:30:41;4.22;;;3.63;;
19863;SDS011;10094;48.820;9.226;2023-06-04T11:37:24;3.72;;;3.33;;
19863;SDS011;10094;48.820;9.226;2023-06-04T11:44:06;7.18;;;3.90;;
19863;SDS011;10094;48.820;9.226;2023-06-04T11:50:52;5.95;;;2.92;;
19863;SDS011;10094;48.820;9.226;2023-06-04T11:57:35;5.07;;;3.88;;
19863;SDS011;10094;48.820;9.226;2023-06-04T12:04:19;6.22;;;4.00;;
19863;SDS011;10094;48.820;9.226;2023-06-04T12:11:01;4.43;;;3.55;;
19863;SDS011;10094;48.820;9.226;2023-06-04T12:17:50;4.15;;;3.33;;
19863;SDS011;10094;48.820;9.226;2023-06-04T12:24:35;3.88;;;3.47;;
19863;SDS011;10094;48.820;9.226;2023-06-04T12:31:29;5.03;;;4.18;;
19863;SDS011;10094;48.820;9.226;2023-06-04T12:38:14;5.68;;;3.65;;
19863;SDS011;10094;48.820;9.226;2023-06-04T12:44:56;5.22;;;3.78;;
19863;SDS011;10094;48.820;9.226;2023-06-04T12:51:39;3.65;;;2.88;;
19863;SDS011;10094;48.820;9.226;2023-06-04T12:58:21;6.25;;;3.60;;
19863;SDS011;10094;48.820;9.226;2023-06-04T13:05:04;5.25;;;4.18;;
19863;SDS011;10094;48.820;9.226;2023-06-04T13:11:46;5.50;;;3.45;;
19863;SDS011;10094;48.820;9.226;2023-06-04T13:18:28;5.15;;;3.40;;
19863;SDS011;10094;48.820;9.226;2023-06-04T13:25:11;5.95;;;3.63;;
19863;SDS011;10094;48.820;9.226;2023-06-04T13:31:53;4.15;;;3.20;;
19863;SDS011;10094;48.820;9.226;2023-06-04T13:38:36;7.50;;;3.38;;
19863;SDS011;10094;48.820;9.226;2023-06-04T13:45:18;4.78;;;3.65;;
19863;SDS011;10094;48.820;9.226;2023-06-04T13:52:02;4.13;;;3.42;;
19863;SDS011;10094;48.820;9.226;2023-06-04T13:58:44;3.88;;;3.40;;
19863;SDS011;10094;48.820;9.226;2023-06-04T14:05:27;4.28;;;3.47;;
19863;SDS011;10094;48.820;9.226;2023-06-04T14:12:09;5.07;;;3.10;;
19863;SDS011;10094;48.820;9.226;2023-06-04T14:18:52;4.65;;;3.40;;
19863;SDS011;10094;48.820;9.226;2023-06-04T14:25:34;4.47;;;3.40;;
19863;SDS011;10094;48.820;9.226;2023-06-04T14:32:18;4.55;;;3.78;;
19863;SDS011;10094;48.820;9.226;2023-06-04T14:39:01;6.57;;;3.78;;
19863;SDS011;10094;48.820;9.226;2023-06-04T14:45:43;4.53;;;3.33;;
19863;SDS011;10094;48.820;9.226;2023-06-04T14:52:25;4.10;;;3.10;;
19863;SDS011;10094;48.820;9.226;2023-06-04T14:59:09;4.15;;;3.50;;
19863;SDS011;10094;48.820;9.226;2023-06-04T15:05:53;3.70;;;3.20;;
19863;SDS011;10094;48.820;9.226;2023-06-04T15:12:44;3.92;;;3.47;;
19863;SDS011;10094;48.820;9.226;2023-06-04T15:19:27;4.57;;;3.67;;
19863;SDS011;10094;48.820;9.226;2023-06-04T15:26:10;7.93;;;3.75;;
19863;SDS011;10094;48.820;9.226;2023-06-04T15:32:53;4.20;;;3.58;;
19863;SDS011;10094;48.820;9.226;2023-06-04T15:39:36;5.55;;;3.75;;
19863;SDS011;10094;48.820;9.226;2023-06-04T15:46:19;3.75;;;3.15;;
19863;SDS011;10094;48.820;9.226;2023-06-04T15:53:05;3.58;;;3.05;;
19863;SDS011;10094;48.820;9.226;2023-06-04T15:59:47;4.45;;;3.05;;
19863;SDS011;10094;48.820;9.226;2023-06-04T16:06:29;6.90;;;3.45;;
19863;SDS011;10094;48.820;9.226;2023-06-04T16:13:12;4.55;;;3.55;;
19863;SDS011;10094;48.820;9.226;2023-06-04T16:19:54;3.90;;;3.47;;
19863;SDS011;10094;48.820;9.226;2023-06-04T16:26:37;5.57;;;3.28;;
19863;SDS011;10094;48.820;9.226;2023-06-04T16:33:19;3.30;;;3.00;;
19863;SDS011;10094;48.820;9.226;2023-06-04T16:40:02;3.92;;;3.38;;
19863;SDS011;10094;48.820;9.226;2023-06-04T16:46:44;4.22;;;3.03;;
19863;SDS011;10094;48.820;9.226;2023-06-04T16:53:27;4.88;;;3.13;;
19863;SDS011;10094;48.820;9.226;2023-06-04T17:00:11;4.25;;;2.83;;
19863;SDS011;10094;48.820;9.226;2023-06-04T17:07:07;4.68;;;3.00;;
19863;SDS011;10094;48.820;9.226;2023-06-04T17:13:50;4.03;;;3.13;;
19863;SDS011;10094;48.820;9.226;2023-06-04T17:20:32;4.20;;;3.17;;
19863;SDS011;10094;48.820;9.226;2023-06-04T17:27:15;3.28;;;2.53;;
19863;SDS011;10094;48.820;9.226;2023-06-04T17:33:58;4.38;;;3.10;;
19863;SDS011;10094;48.820;9.226;2023-06-04T17:40:40;6.05;;;3.47;;
19863;SDS011;10094;48.820;9.226;2023-06-04T17:47:23;5.68;;;2.58;;
19863;SDS011;10094;48.820;9.226;2023-06-04T17:54:06;4.45;;;2.55;;
19863;SDS011;10094;48.820;9.226;2023-06-04T18:00:50;4.78;;;3.00;;
19863;SDS011;10094;48.820;9.226;2023-06-04T18:07:32;2.58;;;2.25;;
19863;SDS011;10094;48.820;9.226;2023-06-04T18:14:15;4.00;;;2.38;;
19863;SDS011;10094;48.820;9.226;2023-06-04T18:20:58;3.47;;;2.80;;
19863;SDS011;10094;48.820;9.226;2023-06-04T18:27:40;4.10;;;2.65;;
19863;SDS011;10094;48.820;9.226;2023-06-04T18:34:23;3.05;;;2.60;;
19863;SDS011;10094;48.820;9.226;2023-06-04T18:41:05;3.10;;;2.30;;
19863;SDS011;10094;48.820;9.226;2023-06-04T18:47:48;4.85;;;2.72;;
19863;SDS011;10094;48.820;9.226;2023-06-04T18:54:30;2.53;;;2.08;;
19863;SDS011;10094;48.820;9.226;2023-06-04T19:01:12;3.17;;;2.42;;
19863;SDS011;10094;48.820;9.226;2023-06-04T19:07:55;10.18;;;2.90;;
19863;SDS011;10094;48.820;9.226;2023-06-04T19:14:37;4.80;;;3.13;;
19863;SDS011;10094;48.820;9.226;2023-06-04T19:21:20;2.95;;;2.53;;
19863;SDS011;10094;48.820;9.226;2023-06-04T19:28:05;5.68;;;2.70;;
19863;SDS011;10094;48.820;9.226;2023-06-04T19:34:48;7.10;;;3.17;;
19863;SDS011;10094;48.820;9.226;2023-06-04T19:41:30;3.72;;;2.95;;
19863;SDS011;10094;48.820;9.226;2023-06-04T19:48:13;7.22;;;3.13;;
19863;SDS011;10094;48.820;9.226;2023-06-04T19:54:56;5.13;;;2.78;;
19863;SDS011;10094;48.820;9.226;2023-06-04T20:01:38;3.03;;;2.50;;
19863;SDS011;10094;48.820;9.226;2023-06-04T20:08:21;6.45;;;3.17;;
19863;SDS011;10094;48.820;9.226;2023-06-04T20:15:05;4.00;;;3.00;;
19863;SDS011;10094;48.820;9.226;2023-06-04T20:21:48;3.72;;;2.65;;
19863;SDS011;10094;48.820;9.226;2023-06-04T20:28:31;4.45;;;2.70;;
19863;SDS011;10094;48.820;9.226;2023-06-04T20:35:14;8.57;;;3.70;;
19863;SDS011;10094;48.820;9.226;2023-06-04T20:41:56;6.55;;;3.20;;
19863;SDS011;10094;48.820;9.226;2023-06-04T20:48:39;5.38;;;3.85;;
19863;SDS011;10094;48.820;9.226;2023-06-04T20:55:22;6.22;;;5.40;;
19863;SDS011;10094;48.820;9.226;2023-06-04T21:02:05;4.57;;;3.47;;
19863;SDS011;10094;48.820;9.226;2023-06-04T21:08:47;6.40;;;3.00;;
19863;SDS011;10094;48.820;9.226;2023-06-04T21:15:30;10.40;;;2.95;;
19863;SDS011;10094;48.820;9.226;2023-06-04T21:22:13;4.78;;;3.83;;
19863;SDS011;10094;48.820;9.226;2023-06-04T21:28:55;3.17;;;2.58;;
19863;SDS011;10094;48.820;9.226;2023-06-04T21:35:38;4.00;;;2.58;;
19863;SDS011;10094;48.820;9.226;2023-06-04T21:42:20;3.97;;;2.88;;
19863;SDS011;10094;48.820;9.226;2023-06-04T21:49:03;5.22;;;3.00;;
19863;SDS011;10094;48.820;9.226;2023-06-04T21:55:45;6.13;;;3.13;;
19863;SDS011;10094;48.820;9.226;2023-06-04T22:02:28;6.25;;;2.85;;
19863;SDS011;10094;48.820;9.226;2023-06-04T22:09:11;5.30;;;2.80;;
19863;SDS011;10094;48.820;9.226;2023-06-04T22:15:53;3.25;;;2.80;;
19863;SDS011;10094;48.820;9.226;2023-06-04T22:22:36;4.85;;;3.40;;
19863;SDS011;10094;48.820;9.226;2023-06-04T22:29:18;5.80;;;3.42;;
19863;SDS011;10094;48.820;9.226;2023-06-04T22:36:01;6.53;;;3.35;;
19863;SDS011;10094;48.820;9.226;2023-06-04T22:42:44;4.65;;;3.35;;
19863;SDS011;10094;48.820;9.226;2023-06-04T22:49:26;3.78;;;3.03;;
19863;SDS011;10094;48.820;9.226;2023-06-04T22:56:09;4.63;;;3.47;;
19863;SDS011;10094;48.820;9.226;2023-06-04T23:02:51;4.82;;;3.30;;
19863;SDS011;10094;48.820;9.226;2023-06-04T23:09:34;3.28;;;2.60;;
19863;SDS011;10094;48.820;9.226;2023-06-04T23:16:17;3.95;;;3.10;;
19863;SDS011;10094;48.820;9.226;2023-06-04T23:22:59;5.75;;;3.00;;
19863;SDS011;10094;48.820;9.226;2023-06-04T23:29:41;7.47;;;3.05;;
19863;SDS011;10094;48.820;9.226;2023-06-04T23:36:26;6.13;;;3.17;;
19863;SDS011;10094;48.820;9.226;2023-06-04T23:43:08;3.47;;;2.75;;
19863;SDS011;10094;48.820;9.226;2023-06-04T23:49:51;5.85;;;3.25;;
19863;SDS011;10094;48.820;9.226;2023-06-04T23:56:33;3.58;;;2.78;;
